sensor_id;sensor_type;location;lat;lon;timestamp;P1;durP1;ratioP1;P2;durP2;ratioP2
60233;SDS011;49514;43.538;-5.708;2024-01-07T00:00:16;11.57;;;2.38;;
60233;SDS011;49514;43.538;-5.708;2024-01-07T00:02:46;10.05;;;2.67;;
60233;SDS011;49514;43.538;-5.708;2024-01-07T00:05:35;8.32;;;2.90;;
60233;SDS011;49514;43.538;-5.708;2024-01-07T00:08:05;11.05;;;3.03;;
60233;SDS011;49514;43.538;-5.708;2024-01-07T00:10:36;11.98;;;3.70;;
60233;SDS011;49514;43.538;-5.708;2024-01-07T00:13:51;15.10;;;4.73;;
60233;SDS011;49514;43.538;-5.708;2024-01-07T00:17:06;10.23;;;3.90;;
60233;SDS011;49514;43.538;-5.708;2024-01-07T00:20:21;8.77;;;3.40;;
60233;SDS011;49514;43.538;-5.708;2024-01-07T00:23:36;9.98;;;3.00;;
60233;SDS011;49514;43.538;-5.708;2024-01-07T00:26:54;14.23;;;3.87;;
60233;SDS011;49514;43.538;-5.708;2024-01-07T00:30:10;11.10;;;3.67;;
60233;SDS011;49514;43.538;-5.708;2024-01-07T00:33:24;9.80;;;3.73;;
60233;SDS011;49514;43.538;-5.708;2024-01-07T00:36:40;8.60;;;2.53;;
60233;SDS011;49514;43.538;-5.708;2024-01-07T00:39:55;5.97;;;2.15;;
60233;SDS011;49514;43.538;-5.708;2024-01-07T00:43:11;5.45;;;1.83;;
60233;SDS011;49514;43.538;-5.708;2024-01-07T00:46:26;5.30;;;1.88;;
60233;SDS011;49514;43.538;-5.708;2024-01-07T00:49:05;5.65;;;2.03;;
60233;SDS011;49514;43.538;-5.708;2024-01-07T00:51:34;5.50;;;2.10;;
60233;SDS011;49514;43.538;-5.708;2024-01-07T00:54:06;4.27;;;2.20;;
60233;SDS011;49514;43.538;-5.708;2024-01-07T00:56:36;4.85;;;2.00;;
60233;SDS011;49514;43.538;-5.708;2024-01-07T00:59:07;4.28;;;1.80;;
60233;SDS011;49514;43.538;-5.708;2024-01-07T01:01:37;4.22;;;2.05;;
60233;SDS011;49514;43.538;-5.708;2024-01-07T01:04:13;5.07;;;2.13;;
60233;SDS011;49514;43.538;-5.708;2024-01-07T01:06:40;6.10;;;2.20;;
60233;SDS011;49514;43.538;-5.708;2024-01-07T01:09:10;5.47;;;2.00;;
60233;SDS011;49514;43.538;-5.708;2024-01-07T01:12:25;4.67;;;1.90;;
60233;SDS011;49514;43.538;-5.708;2024-01-07T01:15:40;4.97;;;1.97;;
60233;SDS011;49514;43.538;-5.708;2024-01-07T01:18:21;4.88;;;1.90;;
60233;SDS011;49514;43.538;-5.708;2024-01-07T01:21:35;3.88;;;1.75;;
60233;SDS011;49514;43.538;-5.708;2024-01-07T01:24:50;5.50;;;1.98;;
60233;SDS011;49514;43.538;-5.708;2024-01-07T01:28:06;4.35;;;1.80;;
60233;SDS011;49514;43.538;-5.708;2024-01-07T01:30:47;5.05;;;1.77;;
60233;SDS011;49514;43.538;-5.708;2024-01-07T01:33:16;5.15;;;2.03;;
60233;SDS011;49514;43.538;-5.708;2024-01-07T01:35:46;6.00;;;1.80;;
60233;SDS011;49514;43.538;-5.708;2024-01-07T01:38:15;3.77;;;1.80;;
60233;SDS011;49514;43.538;-5.708;2024-01-07T01:40:52;5.47;;;2.10;;
60233;SDS011;49514;43.538;-5.708;2024-01-07T01:43:26;8.07;;;2.22;;
60233;SDS011;49514;43.538;-5.708;2024-01-07T01:45:53;4.75;;;1.73;;
60233;SDS011;49514;43.538;-5.708;2024-01-07T01:48:23;7.43;;;2.70;;
60233;SDS011;49514;43.538;-5.708;2024-01-07T01:50:51;7.32;;;2.30;;
60233;SDS011;49514;43.538;-5.708;2024-01-07T01:53:24;8.70;;;2.85;;
60233;SDS011;49514;43.538;-5.708;2024-01-07T01:55:55;8.07;;;2.40;;
60233;SDS011;49514;43.538;-5.708;2024-01-07T01:58:23;6.60;;;2.00;;
60233;SDS011;49514;43.538;-5.708;2024-01-07T02:00:50;3.97;;;1.70;;
60233;SDS011;49514;43.538;-5.708;2024-01-07T02:03:18;6.37;;;1.80;;
60233;SDS011;49514;43.538;-5.708;2024-01-07T02:05:45;4.10;;;1.67;;
60233;SDS011;49514;43.538;-5.708;2024-01-07T02:08:12;6.07;;;1.80;;
60233;SDS011;49514;43.538;-5.708;2024-01-07T02:10:39;5.75;;;1.75;;
60233;SDS011;49514;43.538;-5.708;2024-01-07T02:13:06;4.20;;;1.75;;
60233;SDS011;49514;43.538;-5.708;2024-01-07T02:15:33;5.28;;;1.90;;
60233;SDS011;49514;43.538;-5.708;2024-01-07T02:18:00;4.88;;;1.90;;
60233;SDS011;49514;43.538;-5.708;2024-01-07T02:20:27;5.88;;;1.83;;
60233;SDS011;49514;43.538;-5.708;2024-01-07T02:22:54;6.07;;;2.10;;
60233;SDS011;49514;43.538;-5.708;2024-01-07T02:25:24;6.50;;;1.90;;
60233;SDS011;49514;43.538;-5.708;2024-01-07T02:27:53;5.63;;;2.03;;
60233;SDS011;49514;43.538;-5.708;2024-01-07T02:30:20;4.15;;;1.90;;
60233;SDS011;49514;43.538;-5.708;2024-01-07T02:32:47;8.20;;;2.10;;
60233;SDS011;49514;43.538;-5.708;2024-01-07T02:35:14;5.68;;;1.80;;
60233;SDS011;49514;43.538;-5.708;2024-01-07T02:37:41;4.75;;;2.13;;
60233;SDS011;49514;43.538;-5.708;2024-01-07T02:40:11;5.37;;;1.70;;
60233;SDS011;49514;43.538;-5.708;2024-01-07T02:42:40;4.78;;;1.80;;
60233;SDS011;49514;43.538;-5.708;2024-01-07T02:45:08;4.90;;;1.73;;
60233;SDS011;49514;43.538;-5.708;2024-01-07T02:47:35;4.90;;;1.73;;
60233;SDS011;49514;43.538;-5.708;2024-01-07T02:50:03;4.47;;;1.88;;
60233;SDS011;49514;43.538;-5.708;2024-01-07T02:52:30;8.37;;;2.20;;
60233;SDS011;49514;43.538;-5.708;2024-01-07T02:54:57;6.47;;;2.10;;
60233;SDS011;49514;43.538;-5.708;2024-01-07T02:57:24;9.52;;;2.40;;
60233;SDS011;49514;43.538;-5.708;2024-01-07T02:59:51;8.23;;;2.17;;
60233;SDS011;49514;43.538;-5.708;2024-01-07T03:02:18;5.60;;;2.00;;
60233;SDS011;49514;43.538;-5.708;2024-01-07T03:04:45;12.55;;;2.58;;
60233;SDS011;49514;43.538;-5.708;2024-01-07T03:07:49;7.53;;;2.20;;
60233;SDS011;49514;43.538;-5.708;2024-01-07T03:10:20;4.50;;;2.00;;
60233;SDS011;49514;43.538;-5.708;2024-01-07T03:13:02;6.20;;;2.00;;
60233;SDS011;49514;43.538;-5.708;2024-01-07T03:15:29;5.20;;;1.80;;
60233;SDS011;49514;43.538;-5.708;2024-01-07T03:17:58;6.05;;;1.90;;
60233;SDS011;49514;43.538;-5.708;2024-01-07T03:20:30;5.03;;;2.10;;
60233;SDS011;49514;43.538;-5.708;2024-01-07T03:23:00;8.13;;;2.50;;
60233;SDS011;49514;43.538;-5.708;2024-01-07T03:25:27;10.33;;;2.40;;
60233;SDS011;49514;43.538;-5.708;2024-01-07T03:27:54;11.77;;;2.85;;
60233;SDS011;49514;43.538;-5.708;2024-01-07T03:30:21;19.70;;;4.00;;
60233;SDS011;49514;43.538;-5.708;2024-01-07T03:32:53;15.35;;;3.60;;
60233;SDS011;49514;43.538;-5.708;2024-01-07T03:35:20;20.63;;;4.47;;
60233;SDS011;49514;43.538;-5.708;2024-01-07T03:37:49;19.08;;;4.90;;
60233;SDS011;49514;43.538;-5.708;2024-01-07T03:40:19;14.37;;;3.90;;
60233;SDS011;49514;43.538;-5.708;2024-01-07T03:42:48;17.87;;;5.27;;
60233;SDS011;49514;43.538;-5.708;2024-01-07T03:45:17;21.50;;;5.65;;
60233;SDS011;49514;43.538;-5.708;2024-01-07T03:47:44;20.70;;;5.70;;
60233;SDS011;49514;43.538;-5.708;2024-01-07T03:50:11;13.25;;;3.80;;
60233;SDS011;49514;43.538;-5.708;2024-01-07T03:52:38;6.53;;;2.50;;
60233;SDS011;49514;43.538;-5.708;2024-01-07T03:55:05;20.83;;;5.15;;
60233;SDS011;49514;43.538;-5.708;2024-01-07T03:57:32;19.13;;;6.35;;
60233;SDS011;49514;43.538;-5.708;2024-01-07T03:59:59;12.45;;;4.40;;
60233;SDS011;49514;43.538;-5.708;2024-01-07T04:03:12;6.43;;;3.10;;
60233;SDS011;49514;43.538;-5.708;2024-01-07T04:05:39;7.38;;;2.42;;
60233;SDS011;49514;43.538;-5.708;2024-01-07T04:08:08;8.77;;;2.75;;
60233;SDS011;49514;43.538;-5.708;2024-01-07T04:10:36;4.97;;;2.40;;
60233;SDS011;49514;43.538;-5.708;2024-01-07T04:13:06;7.20;;;2.50;;
60233;SDS011;49514;43.538;-5.708;2024-01-07T04:15:33;4.88;;;2.40;;
60233;SDS011;49514;43.538;-5.708;2024-01-07T04:18:01;5.53;;;2.50;;
60233;SDS011;49514;43.538;-5.708;2024-01-07T04:20:29;5.85;;;2.30;;
60233;SDS011;49514;43.538;-5.708;2024-01-07T04:22:56;5.67;;;2.30;;
60233;SDS011;49514;43.538;-5.708;2024-01-07T04:25:23;7.10;;;2.97;;
60233;SDS011;49514;43.538;-5.708;2024-01-07T04:27:51;8.83;;;2.93;;
60233;SDS011;49514;43.538;-5.708;2024-01-07T04:30:18;7.85;;;3.30;;
60233;SDS011;49514;43.538;-5.708;2024-01-07T04:32:44;6.82;;;3.10;;
60233;SDS011;49514;43.538;-5.708;2024-01-07T04:35:12;6.10;;;2.75;;
60233;SDS011;49514;43.538;-5.708;2024-01-07T04:37:39;9.85;;;3.70;;
60233;SDS011;49514;43.538;-5.708;2024-01-07T04:40:06;14.93;;;3.83;;
60233;SDS011;49514;43.538;-5.708;2024-01-07T04:42:33;15.25;;;3.20;;
60233;SDS011;49514;43.538;-5.708;2024-01-07T04:45:00;13.67;;;3.40;;
60233;SDS011;49514;43.538;-5.708;2024-01-07T04:47:31;11.00;;;3.35;;
60233;SDS011;49514;43.538;-5.708;2024-01-07T04:50:01;16.08;;;3.72;;
60233;SDS011;49514;43.538;-5.708;2024-01-07T04:52:29;12.18;;;3.15;;
60233;SDS011;49514;43.538;-5.708;2024-01-07T04:54:56;13.68;;;3.13;;
60233;SDS011;49514;43.538;-5.708;2024-01-07T04:57:23;10.73;;;2.70;;
60233;SDS011;49514;43.538;-5.708;2024-01-07T04:59:50;6.95;;;2.40;;
60233;SDS011;49514;43.538;-5.708;2024-01-07T05:02:18;7.63;;;2.55;;
60233;SDS011;49514;43.538;-5.708;2024-01-07T05:04:45;7.50;;;2.30;;
60233;SDS011;49514;43.538;-5.708;2024-01-07T05:07:12;7.80;;;2.60;;
60233;SDS011;49514;43.538;-5.708;2024-01-07T05:09:39;6.75;;;2.63;;
60233;SDS011;49514;43.538;-5.708;2024-01-07T05:12:06;5.78;;;2.55;;
60233;SDS011;49514;43.538;-5.708;2024-01-07T05:14:33;6.87;;;2.80;;
60233;SDS011;49514;43.538;-5.708;2024-01-07T05:17:00;8.60;;;3.00;;
60233;SDS011;49514;43.538;-5.708;2024-01-07T05:19:27;5.33;;;2.30;;
60233;SDS011;49514;43.538;-5.708;2024-01-07T05:21:54;5.32;;;1.80;;
60233;SDS011;49514;43.538;-5.708;2024-01-07T05:24:21;5.68;;;1.80;;
60233;SDS011;49514;43.538;-5.708;2024-01-07T05:26:48;3.90;;;1.70;;
60233;SDS011;49514;43.538;-5.708;2024-01-07T05:29:15;3.93;;;1.70;;
60233;SDS011;49514;43.538;-5.708;2024-01-07T05:31:42;4.85;;;2.13;;
60233;SDS011;49514;43.538;-5.708;2024-01-07T05:34:09;6.40;;;2.10;;
60233;SDS011;49514;43.538;-5.708;2024-01-07T05:36:36;5.20;;;1.80;;
60233;SDS011;49514;43.538;-5.708;2024-01-07T05:39:03;6.15;;;1.92;;
60233;SDS011;49514;43.538;-5.708;2024-01-07T05:41:31;6.63;;;2.00;;
60233;SDS011;49514;43.538;-5.708;2024-01-07T05:43:57;5.60;;;2.05;;
60233;SDS011;49514;43.538;-5.708;2024-01-07T05:46:25;5.65;;;1.85;;
60233;SDS011;49514;43.538;-5.708;2024-01-07T05:48:52;5.33;;;1.60;;
60233;SDS011;49514;43.538;-5.708;2024-01-07T05:51:19;5.75;;;2.20;;
60233;SDS011;49514;43.538;-5.708;2024-01-07T05:53:46;4.28;;;1.98;;
60233;SDS011;49514;43.538;-5.708;2024-01-07T05:56:13;5.88;;;2.13;;
60233;SDS011;49514;43.538;-5.708;2024-01-07T05:58:40;5.35;;;1.70;;
60233;SDS011;49514;43.538;-5.708;2024-01-07T06:01:08;7.05;;;2.03;;
60233;SDS011;49514;43.538;-5.708;2024-01-07T06:03:35;4.55;;;1.70;;
60233;SDS011;49514;43.538;-5.708;2024-01-07T06:06:02;3.83;;;1.70;;
60233;SDS011;49514;43.538;-5.708;2024-01-07T06:08:29;6.20;;;1.80;;
60233;SDS011;49514;43.538;-5.708;2024-01-07T06:10:56;6.32;;;1.88;;
60233;SDS011;49514;43.538;-5.708;2024-01-07T06:13:23;6.68;;;2.20;;
60233;SDS011;49514;43.538;-5.708;2024-01-07T06:15:51;5.30;;;2.25;;
60233;SDS011;49514;43.538;-5.708;2024-01-07T06:18:18;6.20;;;2.30;;
60233;SDS011;49514;43.538;-5.708;2024-01-07T06:20:45;6.63;;;2.40;;
60233;SDS011;49514;43.538;-5.708;2024-01-07T06:23:12;4.63;;;2.20;;
60233;SDS011;49514;43.538;-5.708;2024-01-07T06:25:39;6.28;;;2.15;;
60233;SDS011;49514;43.538;-5.708;2024-01-07T06:28:06;5.00;;;2.28;;
60233;SDS011;49514;43.538;-5.708;2024-01-07T06:30:33;5.47;;;2.28;;
60233;SDS011;49514;43.538;-5.708;2024-01-07T06:33:00;5.75;;;2.60;;
60233;SDS011;49514;43.538;-5.708;2024-01-07T06:35:27;5.18;;;2.50;;
60233;SDS011;49514;43.538;-5.708;2024-01-07T06:37:54;6.00;;;2.40;;
60233;SDS011;49514;43.538;-5.708;2024-01-07T06:40:21;8.55;;;2.60;;
60233;SDS011;49514;43.538;-5.708;2024-01-07T06:42:48;5.25;;;2.42;;
60233;SDS011;49514;43.538;-5.708;2024-01-07T06:45:16;5.53;;;2.70;;
60233;SDS011;49514;43.538;-5.708;2024-01-07T06:47:43;6.93;;;3.13;;
60233;SDS011;49514;43.538;-5.708;2024-01-07T06:50:11;6.10;;;2.85;;
60233;SDS011;49514;43.538;-5.708;2024-01-07T06:52:39;6.78;;;2.90;;
60233;SDS011;49514;43.538;-5.708;2024-01-07T06:55:06;7.55;;;3.03;;
60233;SDS011;49514;43.538;-5.708;2024-01-07T06:57:34;6.95;;;2.90;;
60233;SDS011;49514;43.538;-5.708;2024-01-07T07:00:02;7.28;;;2.60;;
60233;SDS011;49514;43.538;-5.708;2024-01-07T07:02:30;5.93;;;2.57;;
60233;SDS011;49514;43.538;-5.708;2024-01-07T07:04:57;8.95;;;2.85;;
60233;SDS011;49514;43.538;-5.708;2024-01-07T07:07:24;5.35;;;2.40;;
60233;SDS011;49514;43.538;-5.708;2024-01-07T07:09:51;8.07;;;2.78;;
60233;SDS011;49514;43.538;-5.708;2024-01-07T07:12:18;5.23;;;2.60;;
60233;SDS011;49514;43.538;-5.708;2024-01-07T07:14:45;5.37;;;2.50;;
60233;SDS011;49514;43.538;-5.708;2024-01-07T07:17:13;6.20;;;2.72;;
60233;SDS011;49514;43.538;-5.708;2024-01-07T07:19:40;4.70;;;2.40;;
60233;SDS011;49514;43.538;-5.708;2024-01-07T07:22:07;5.90;;;2.60;;
60233;SDS011;49514;43.538;-5.708;2024-01-07T07:24:34;5.32;;;2.80;;
60233;SDS011;49514;43.538;-5.708;2024-01-07T07:27:01;5.68;;;2.75;;
60233;SDS011;49514;43.538;-5.708;2024-01-07T07:29:28;6.13;;;2.70;;
60233;SDS011;49514;43.538;-5.708;2024-01-07T07:31:55;4.13;;;2.47;;
60233;SDS011;49514;43.538;-5.708;2024-01-07T07:34:22;8.75;;;3.50;;
60233;SDS011;49514;43.538;-5.708;2024-01-07T07:36:49;5.70;;;2.30;;
60233;SDS011;49514;43.538;-5.708;2024-01-07T07:39:17;6.88;;;2.40;;
60233;SDS011;49514;43.538;-5.708;2024-01-07T07:41:44;7.32;;;2.42;;
60233;SDS011;49514;43.538;-5.708;2024-01-07T07:44:11;4.35;;;1.88;;
60233;SDS011;49514;43.538;-5.708;2024-01-07T07:46:38;6.87;;;2.30;;
60233;SDS011;49514;43.538;-5.708;2024-01-07T07:49:05;4.97;;;2.13;;
60233;SDS011;49514;43.538;-5.708;2024-01-07T07:51:33;5.10;;;1.88;;
60233;SDS011;49514;43.538;-5.708;2024-01-07T07:54:00;3.80;;;2.00;;
60233;SDS011;49514;43.538;-5.708;2024-01-07T07:56:27;6.00;;;2.50;;
60233;SDS011;49514;43.538;-5.708;2024-01-07T07:58:54;12.10;;;4.03;;
60233;SDS011;49514;43.538;-5.708;2024-01-07T08:01:21;8.67;;;3.10;;
60233;SDS011;49514;43.538;-5.708;2024-01-07T08:03:48;5.68;;;2.58;;
60233;SDS011;49514;43.538;-5.708;2024-01-07T08:06:15;6.93;;;2.50;;
60233;SDS011;49514;43.538;-5.708;2024-01-07T08:08:42;6.47;;;2.40;;
60233;SDS011;49514;43.538;-5.708;2024-01-07T08:11:09;6.65;;;2.80;;
60233;SDS011;49514;43.538;-5.708;2024-01-07T08:13:36;10.18;;;3.25;;
60233;SDS011;49514;43.538;-5.708;2024-01-07T08:16:04;6.03;;;3.30;;
60233;SDS011;49514;43.538;-5.708;2024-01-07T08:18:36;6.30;;;3.77;;
60233;SDS011;49514;43.538;-5.708;2024-01-07T08:21:03;7.97;;;3.80;;
60233;SDS011;49514;43.538;-5.708;2024-01-07T08:23:29;9.02;;;3.78;;
60233;SDS011;49514;43.538;-5.708;2024-01-07T08:25:56;6.30;;;3.03;;
60233;SDS011;49514;43.538;-5.708;2024-01-07T08:28:25;6.47;;;2.92;;
60233;SDS011;49514;43.538;-5.708;2024-01-07T08:30:52;6.60;;;2.70;;
60233;SDS011;49514;43.538;-5.708;2024-01-07T08:33:19;7.00;;;2.92;;
60233;SDS011;49514;43.538;-5.708;2024-01-07T08:35:46;6.53;;;2.80;;
60233;SDS011;49514;43.538;-5.708;2024-01-07T08:38:14;6.97;;;2.97;;
60233;SDS011;49514;43.538;-5.708;2024-01-07T08:40:41;4.30;;;2.45;;
60233;SDS011;49514;43.538;-5.708;2024-01-07T08:43:08;6.37;;;2.70;;
60233;SDS011;49514;43.538;-5.708;2024-01-07T08:45:35;5.20;;;2.60;;
60233;SDS011;49514;43.538;-5.708;2024-01-07T08:48:02;7.10;;;2.83;;
60233;SDS011;49514;43.538;-5.708;2024-01-07T08:50:30;9.73;;;3.00;;
60233;SDS011;49514;43.538;-5.708;2024-01-07T08:52:57;7.97;;;3.20;;
60233;SDS011;49514;43.538;-5.708;2024-01-07T08:55:24;9.25;;;3.38;;
60233;SDS011;49514;43.538;-5.708;2024-01-07T08:57:51;7.43;;;3.28;;
60233;SDS011;49514;43.538;-5.708;2024-01-07T09:00:19;8.32;;;3.75;;
60233;SDS011;49514;43.538;-5.708;2024-01-07T09:02:48;7.47;;;3.78;;
60233;SDS011;49514;43.538;-5.708;2024-01-07T09:05:16;17.25;;;6.95;;
60233;SDS011;49514;43.538;-5.708;2024-01-07T09:07:43;20.00;;;8.30;;
60233;SDS011;49514;43.538;-5.708;2024-01-07T09:10:10;21.17;;;8.85;;
60233;SDS011;49514;43.538;-5.708;2024-01-07T09:12:39;10.98;;;5.65;;
60233;SDS011;49514;43.538;-5.708;2024-01-07T09:15:06;6.95;;;3.20;;
60233;SDS011;49514;43.538;-5.708;2024-01-07T09:17:36;5.00;;;2.47;;
60233;SDS011;49514;43.538;-5.708;2024-01-07T09:20:04;7.20;;;2.10;;
60233;SDS011;49514;43.538;-5.708;2024-01-07T09:22:34;5.40;;;2.20;;
60233;SDS011;49514;43.538;-5.708;2024-01-07T09:25:05;5.03;;;2.03;;
60233;SDS011;49514;43.538;-5.708;2024-01-07T09:27:33;8.55;;;2.20;;
60233;SDS011;49514;43.538;-5.708;2024-01-07T09:30:00;5.33;;;2.10;;
60233;SDS011;49514;43.538;-5.708;2024-01-07T09:32:27;4.78;;;1.95;;
60233;SDS011;49514;43.538;-5.708;2024-01-07T09:34:54;5.07;;;2.08;;
60233;SDS011;49514;43.538;-5.708;2024-01-07T09:37:21;3.92;;;1.83;;
60233;SDS011;49514;43.538;-5.708;2024-01-07T09:39:48;5.68;;;2.20;;
60233;SDS011;49514;43.538;-5.708;2024-01-07T09:42:16;5.88;;;2.00;;
60233;SDS011;49514;43.538;-5.708;2024-01-07T09:44:43;5.63;;;2.10;;
60233;SDS011;49514;43.538;-5.708;2024-01-07T09:47:33;5.50;;;2.00;;
60233;SDS011;49514;43.538;-5.708;2024-01-07T09:50:00;5.10;;;1.83;;
60233;SDS011;49514;43.538;-5.708;2024-01-07T09:52:31;4.22;;;1.90;;
60233;SDS011;49514;43.538;-5.708;2024-01-07T09:55:22;4.93;;;2.10;;
60233;SDS011;49514;43.538;-5.708;2024-01-07T09:57:54;5.70;;;2.10;;
60233;SDS011;49514;43.538;-5.708;2024-01-07T10:00:21;4.10;;;1.83;;
60233;SDS011;49514;43.538;-5.708;2024-01-07T10:02:56;6.37;;;1.90;;
60233;SDS011;49514;43.538;-5.708;2024-01-07T10:06:12;4.07;;;1.70;;
60233;SDS011;49514;43.538;-5.708;2024-01-07T10:08:48;4.30;;;1.92;;
60233;SDS011;49514;43.538;-5.708;2024-01-07T10:11:16;4.28;;;1.90;;
60233;SDS011;49514;43.538;-5.708;2024-01-07T10:13:46;5.27;;;2.10;;
60233;SDS011;49514;43.538;-5.708;2024-01-07T10:16:14;5.05;;;1.80;;
60233;SDS011;49514;43.538;-5.708;2024-01-07T10:18:41;4.03;;;1.90;;
60233;SDS011;49514;43.538;-5.708;2024-01-07T10:21:08;4.80;;;1.95;;
60233;SDS011;49514;43.538;-5.708;2024-01-07T10:23:35;6.35;;;1.98;;
60233;SDS011;49514;43.538;-5.708;2024-01-07T10:26:03;5.23;;;1.90;;
60233;SDS011;49514;43.538;-5.708;2024-01-07T10:28:31;5.35;;;1.98;;
60233;SDS011;49514;43.538;-5.708;2024-01-07T10:30:58;4.40;;;1.90;;
60233;SDS011;49514;43.538;-5.708;2024-01-07T10:33:30;5.35;;;2.10;;
60233;SDS011;49514;43.538;-5.708;2024-01-07T10:36:01;4.85;;;1.80;;
60233;SDS011;49514;43.538;-5.708;2024-01-07T10:38:34;3.58;;;1.60;;
60233;SDS011;49514;43.538;-5.708;2024-01-07T10:41:02;3.50;;;1.67;;
60233;SDS011;49514;43.538;-5.708;2024-01-07T10:43:31;3.92;;;1.40;;
60233;SDS011;49514;43.538;-5.708;2024-01-07T10:46:00;4.55;;;1.50;;
60233;SDS011;49514;43.538;-5.708;2024-01-07T10:48:30;3.63;;;1.50;;
60233;SDS011;49514;43.538;-5.708;2024-01-07T10:51:00;3.92;;;1.60;;
60233;SDS011;49514;43.538;-5.708;2024-01-07T10:53:28;4.30;;;1.73;;
60233;SDS011;49514;43.538;-5.708;2024-01-07T10:55:59;2.50;;;1.40;;
60233;SDS011;49514;43.538;-5.708;2024-01-07T10:58:27;3.72;;;1.50;;
60233;SDS011;49514;43.538;-5.708;2024-01-07T11:00:54;3.57;;;1.33;;
60233;SDS011;49514;43.538;-5.708;2024-01-07T11:03:26;4.00;;;1.27;;
60233;SDS011;49514;43.538;-5.708;2024-01-07T11:06:42;5.13;;;1.50;;
60233;SDS011;49514;43.538;-5.708;2024-01-07T11:08:44;4.37;;;1.40;;
60233;SDS011;49514;43.538;-5.708;2024-01-07T11:11:13;4.17;;;1.33;;
60233;SDS011;49514;43.538;-5.708;2024-01-07T11:13:41;3.90;;;1.30;;
60233;SDS011;49514;43.538;-5.708;2024-01-07T11:16:09;4.63;;;1.40;;
60233;SDS011;49514;43.538;-5.708;2024-01-07T11:18:46;3.20;;;1.00;;
60233;SDS011;49514;43.538;-5.708;2024-01-07T11:21:21;4.50;;;1.90;;
60233;SDS011;49514;43.538;-5.708;2024-01-07T11:23:50;8.00;;;2.92;;
60233;SDS011;49514;43.538;-5.708;2024-01-07T11:26:19;8.20;;;3.05;;
60233;SDS011;49514;43.538;-5.708;2024-01-07T11:31:14;3.90;;;1.45;;
60233;SDS011;49514;43.538;-5.708;2024-01-07T11:33:42;2.65;;;1.05;;
60233;SDS011;49514;43.538;-5.708;2024-01-07T11:36:13;3.43;;;1.13;;
60233;SDS011;49514;43.538;-5.708;2024-01-07T11:38:41;3.77;;;1.50;;
60233;SDS011;49514;43.538;-5.708;2024-01-07T11:41:09;3.40;;;1.77;;
60233;SDS011;49514;43.538;-5.708;2024-01-07T11:43:38;2.97;;;1.73;;
60233;SDS011;49514;43.538;-5.708;2024-01-07T11:46:05;3.45;;;1.77;;
60233;SDS011;49514;43.538;-5.708;2024-01-07T11:48:32;3.47;;;1.63;;
60233;SDS011;49514;43.538;-5.708;2024-01-07T11:50:59;3.85;;;1.60;;
60233;SDS011;49514;43.538;-5.708;2024-01-07T11:53:26;4.40;;;1.67;;
60233;SDS011;49514;43.538;-5.708;2024-01-07T11:55:54;4.67;;;2.00;;
60233;SDS011;49514;43.538;-5.708;2024-01-07T11:58:25;3.88;;;2.00;;
60233;SDS011;49514;43.538;-5.708;2024-01-07T12:00:54;5.28;;;1.77;;
60233;SDS011;49514;43.538;-5.708;2024-01-07T12:03:23;5.22;;;1.77;;
60233;SDS011;49514;43.538;-5.708;2024-01-07T12:05:50;3.87;;;1.53;;
60233;SDS011;49514;43.538;-5.708;2024-01-07T12:08:20;5.77;;;1.80;;
60233;SDS011;49514;43.538;-5.708;2024-01-07T12:10:47;4.60;;;1.37;;
60233;SDS011;49514;43.538;-5.708;2024-01-07T12:13:14;5.53;;;1.42;;
60233;SDS011;49514;43.538;-5.708;2024-01-07T12:15:44;6.38;;;1.50;;
60233;SDS011;49514;43.538;-5.708;2024-01-07T12:18:13;5.10;;;1.58;;
60233;SDS011;49514;43.538;-5.708;2024-01-07T12:20:41;2.47;;;1.13;;
60233;SDS011;49514;43.538;-5.708;2024-01-07T12:23:08;3.90;;;1.27;;
60233;SDS011;49514;43.538;-5.708;2024-01-07T12:25:38;2.65;;;1.30;;
60233;SDS011;49514;43.538;-5.708;2024-01-07T12:28:06;3.83;;;1.50;;
60233;SDS011;49514;43.538;-5.708;2024-01-07T12:30:33;4.82;;;1.75;;
60233;SDS011;49514;43.538;-5.708;2024-01-07T12:33:01;6.13;;;2.00;;
60233;SDS011;49514;43.538;-5.708;2024-01-07T12:35:31;5.78;;;2.10;;
60233;SDS011;49514;43.538;-5.708;2024-01-07T12:37:59;4.85;;;2.00;;
60233;SDS011;49514;43.538;-5.708;2024-01-07T12:40:26;6.78;;;2.00;;
60233;SDS011;49514;43.538;-5.708;2024-01-07T12:42:54;5.53;;;2.00;;
60233;SDS011;49514;43.538;-5.708;2024-01-07T12:45:21;6.67;;;2.20;;
60233;SDS011;49514;43.538;-5.708;2024-01-07T12:47:48;4.50;;;2.10;;
60233;SDS011;49514;43.538;-5.708;2024-01-07T12:50:15;4.65;;;1.90;;
60233;SDS011;49514;43.538;-5.708;2024-01-07T12:52:43;3.65;;;1.70;;
60233;SDS011;49514;43.538;-5.708;2024-01-07T12:55:10;3.63;;;1.70;;
60233;SDS011;49514;43.538;-5.708;2024-01-07T12:57:37;3.70;;;1.77;;
60233;SDS011;49514;43.538;-5.708;2024-01-07T13:00:04;5.13;;;2.10;;
60233;SDS011;49514;43.538;-5.708;2024-01-07T13:27:03;4.28;;;1.10;;
60233;SDS011;49514;43.538;-5.708;2024-01-07T13:29:30;3.67;;;1.30;;
60233;SDS011;49514;43.538;-5.708;2024-01-07T13:31:57;4.05;;;1.30;;
60233;SDS011;49514;43.538;-5.708;2024-01-07T13:34:27;3.83;;;1.20;;
60233;SDS011;49514;43.538;-5.708;2024-01-07T13:36:56;4.30;;;1.50;;
60233;SDS011;49514;43.538;-5.708;2024-01-07T13:39:23;4.20;;;1.47;;
60233;SDS011;49514;43.538;-5.708;2024-01-07T13:41:50;6.53;;;1.70;;
60233;SDS011;49514;43.538;-5.708;2024-01-07T13:44:18;6.43;;;1.80;;
60233;SDS011;49514;43.538;-5.708;2024-01-07T13:46:45;6.38;;;1.65;;
60233;SDS011;49514;43.538;-5.708;2024-01-07T13:49:18;5.93;;;2.17;;
60233;SDS011;49514;43.538;-5.708;2024-01-07T13:51:45;5.30;;;2.10;;
60233;SDS011;49514;43.538;-5.708;2024-01-07T13:54:12;7.38;;;2.13;;
60233;SDS011;49514;43.538;-5.708;2024-01-07T13:56:40;8.63;;;2.20;;
60233;SDS011;49514;43.538;-5.708;2024-01-07T13:59:10;4.10;;;1.70;;
60233;SDS011;49514;43.538;-5.708;2024-01-07T14:01:38;4.35;;;1.80;;
60233;SDS011;49514;43.538;-5.708;2024-01-07T14:04:08;3.30;;;1.23;;
60233;SDS011;49514;43.538;-5.708;2024-01-07T14:06:35;3.03;;;1.40;;
60233;SDS011;49514;43.538;-5.708;2024-01-07T14:09:03;5.78;;;1.50;;
60233;SDS011;49514;43.538;-5.708;2024-01-07T14:11:32;3.20;;;1.30;;
60233;SDS011;49514;43.538;-5.708;2024-01-07T14:14:02;3.85;;;1.40;;
60233;SDS011;49514;43.538;-5.708;2024-01-07T14:58:20;9.52;;;1.10;;
60233;SDS011;49514;43.538;-5.708;2024-01-07T15:00:52;5.68;;;0.70;;
60233;SDS011;49514;43.538;-5.708;2024-01-07T15:03:19;5.43;;;1.08;;
60233;SDS011;49514;43.538;-5.708;2024-01-07T15:15:38;5.80;;;1.20;;
60233;SDS011;49514;43.538;-5.708;2024-01-07T15:18:06;4.88;;;1.30;;
60233;SDS011;49514;43.538;-5.708;2024-01-07T15:20:35;5.65;;;1.27;;
60233;SDS011;49514;43.538;-5.708;2024-01-07T15:23:02;3.20;;;0.90;;
60233;SDS011;49514;43.538;-5.708;2024-01-07T15:25:29;4.75;;;1.10;;
60233;SDS011;49514;43.538;-5.708;2024-01-07T15:27:56;3.60;;;0.90;;
60233;SDS011;49514;43.538;-5.708;2024-01-07T15:30:23;3.20;;;0.60;;
60233;SDS011;49514;43.538;-5.708;2024-01-07T15:32:50;4.50;;;1.00;;
60233;SDS011;49514;43.538;-5.708;2024-01-07T15:35:20;6.40;;;1.30;;
60233;SDS011;49514;43.538;-5.708;2024-01-07T15:37:50;2.88;;;0.90;;
60233;SDS011;49514;43.538;-5.708;2024-01-07T15:40:17;2.53;;;1.10;;
60233;SDS011;49514;43.538;-5.708;2024-01-07T15:42:46;4.68;;;1.38;;
60233;SDS011;49514;43.538;-5.708;2024-01-07T15:45:13;4.30;;;0.90;;
60233;SDS011;49514;43.538;-5.708;2024-01-07T15:47:40;2.53;;;0.90;;
60233;SDS011;49514;43.538;-5.708;2024-01-07T15:50:10;4.88;;;1.00;;
60233;SDS011;49514;43.538;-5.708;2024-01-07T15:52:37;3.22;;;1.00;;
60233;SDS011;49514;43.538;-5.708;2024-01-07T15:55:06;4.82;;;0.93;;
60233;SDS011;49514;43.538;-5.708;2024-01-07T15:57:34;3.58;;;1.00;;
60233;SDS011;49514;43.538;-5.708;2024-01-07T16:00:04;4.45;;;1.02;;
60233;SDS011;49514;43.538;-5.708;2024-01-07T16:02:32;4.40;;;1.10;;
60233;SDS011;49514;43.538;-5.708;2024-01-07T16:04:59;4.50;;;1.08;;
60233;SDS011;49514;43.538;-5.708;2024-01-07T16:07:26;3.87;;;1.20;;
60233;SDS011;49514;43.538;-5.708;2024-01-07T16:09:54;7.23;;;1.20;;
60233;SDS011;49514;43.538;-5.708;2024-01-07T16:12:21;6.03;;;1.27;;